Data for 07/20/2010

Time Sea-Level Adjusted Pressure Absolute Pressure Temperature Relative Humidity Dew Point   
(mb) (inHg) (mb) (inHg) (C) (F) (%) (C) (F)
00:05 1020 30.12 850 25.1 16.4 61.5 65 9.9 49.8
00:10 1020 30.12 850 25.1 16.3 61.4 65 9.8 49.6
00:15 1020 30.12 850 25.1 16.2 61.2 65 9.8 49.6
00:20 1020 30.12 850 25.1 16.1 61 65 9.7 49.5
00:25 1020 30.12 850 25.1 16.1 61 66 9.8 49.6
00:30 1020 30.12 850 25.1 16.1 60.9 66 9.7 49.5
00:35 1020 30.12 850 25.1 16.1 61 65 9.6 49.3
00:40 1020 30.12 850 25.1 16.1 61 65 9.6 49.3
00:45 1020 30.12 850 25.1 16.1 60.9 65 9.6 49.2
00:50 1020 30.12 850 25.1 16.1 60.9 65 9.5 49.1
00:55 1020 30.12 850 25.1 16 60.8 65 9.6 49.2
01:00 1021 30.15 850 25.1 15.9 60.6 66 9.6 49.2
01:05 1021 30.15 850 25.1 15.8 60.4 66 9.5 49
01:10 1021 30.15 850 25.1 15.7 60.3 66 9.4 48.9
01:15 1021 30.15 850 25.1 15.7 60.3 65 9.3 48.7
01:20 1021 30.15 850 25.1 15.8 60.4 66 9.4 49
01:25 1021 30.15 850 25.1 15.4 59.8 67 9.5 49
01:30 1021 30.15 850 25.1 15 58.9 69 9.4 48.9
01:35 1021 30.15 850 25.1 14.6 58.2 71 9.3 48.8
01:40 1021 30.15 850 25.1 14.5 58.1 70 9.1 48.4
01:45 1021 30.15 850 25.1 14.5 58.2 70 9.2 48.6
01:50 1021 30.15 850 25.1 14.4 58 70 9 48.3
01:55 1021 30.15 850 25.1 14.4 57.8 68 8.7 47.6
02:00 1021 30.15 850 25.1 14.6 58.3 67 8.5 47.4
02:05 1021 30.15 850 25.1 14.7 58.5 67 8.8 47.8
02:10 1021 30.15 850 25.1 14.5 58.1 67 8.6 47.5
02:15 1021 30.15 850 25.1 14.5 58 69 8.9 48
02:20 1021 30.15 850 25.1 14.3 57.7 70 9 48.2
02:25 1021 30.15 850 25.1 14.1 57.3 71 9 48.1
02:30 1021 30.15 850 25.1 14 57.1 72 9.1 48.3
02:35 1021 30.15 850 25.1 13.8 56.9 73 9.1 48.3
02:40 1021 30.15 850 25.1 13.8 56.8 73 9.1 48.4
02:45 1021 30.15 850 25.1 13.7 56.7 73 9 48.3
02:50 1021 30.15 850 25.1 13.5 56.4 74 9.1 48.4
02:55 1021 30.15 850 25.1 13.3 56 75 9 48.3
03:00 1021 30.15 850 25.1 13.2 55.8 75 9 48.1
03:05 1021 30.15 850 25.1 13.1 55.6 76 9 48.2
03:10 1021 30.15 850 25.1 13.1 55.5 76 8.9 48
03:15 1021 30.15 850 25.1 13.1 55.6 75 8.8 47.8
03:20 1021 30.15 850 25.1 13.1 55.6 75 8.9 47.9
03:25 1021 30.15 850 25.1 13.1 55.6 75 8.8 47.8
03:30 1021 30.15 850 25.1 13 55.4 76 9 48.2
03:35 1021 30.15 850 25.1 12.8 55.1 77 8.9 48
03:40 1021 30.15 851 25.13 12.8 55.1 77 8.9 48
03:45 1021 30.15 851 25.13 12.9 55.1 77 8.9 48
03:50 1021 30.15 851 25.13 12.6 54.8 78 8.9 48.1
03:55 1021 30.15 851 25.13 12.2 53.9 80 8.8 47.8
04:00 1021 30.15 851 25.13 11.9 53.5 81 8.7 47.7
04:05 1022 30.18 851 25.13 11.9 53.5 79 8.5 47.3
04:10 1022 30.18 851 25.13 12.1 53.7 74 7.6 45.7
04:15 1022 30.18 851 25.13 12.1 53.7 77 8.2 46.8
04:20 1022 30.18 851 25.13 11.7 53.1 78 8 46.5
04:25 1022 30.18 851 25.13 11.6 52.8 79 8 46.4
04:30 1022 30.18 851 25.13 11.4 52.6 79 7.9 46.2
04:35 1022 30.18 851 25.13 11.1 52 81 7.9 46.2
04:40 1022 30.18 851 25.13 10.7 51.2 83 7.8 46.1
04:45 1022 30.18 851 25.13 10.5 50.8 83 7.7 45.9
04:50 1022 30.18 851 25.13 10.4 50.8 82 7.5 45.6
04:55 1022 30.18 851 25.13 10.3 50.6 82 7.4 45.2
05:00 1022 30.18 851 25.13 10.3 50.5 81 7.3 45.1
05:05 1022 30.18 851 25.13 10.3 50.6 81 7.2 44.9
05:10 1022 30.18 851 25.13 10.3 50.6 81 7.2 45
05:15 1022 30.18 851 25.13 10.2 50.4 81 7.2 44.9
05:20 1022 30.18 851 25.13 10.2 50.3 82 7.2 45
05:25 1022 30.18 851 25.13 10.1 50.2 82 7.3 45.1
05:30 1022 30.18 851 25.13 10.2 50.3 82 7.3 45.1
05:35 1022 30.18 851 25.13 10.3 50.5 83 7.4 45.4
05:40 1022 30.18 851 25.13 10.3 50.5 82 7.4 45.3
05:45 1022 30.18 851 25.13 10.4 50.7 82 7.4 45.3
05:50 1022 30.18 851 25.13 10.4 50.6 83 7.6 45.6
05:55 1022 30.18 851 25.13 10.3 50.6 83 7.5 45.5
06:00 1022 30.18 851 25.13 10.2 50.4 82 7.2 45
06:05 1022 30.18 851 25.13 10.2 50.3 81 7.2 44.9
06:10 1022 30.18 851 25.13 10.2 50.3 81 7.1 44.8
06:15 1022 30.18 851 25.13 10.1 50.1 82 7.1 44.7
06:20 1022 30.18 851 25.13 10.1 50.1 81 7 44.6
06:25 1022 30.18 851 25.13 10.3 50.5 80 7.1 44.7
06:30 1022 30.18 851 25.13 10.5 50.8 82 7.5 45.6
06:35 1022 30.18 851 25.13 10.7 51.2 81 7.5 45.5
06:40 1022 30.18 851 25.13 10.9 51.6 81 7.7 45.9
06:45 1022 30.18 851 25.13 11.1 51.9 79 7.5 45.6
06:50 1022 30.18 851 25.13 11.4 52.5 78 7.8 46
06:55 1022 30.18 851 25.13 11.6 53 77 7.8 46
07:00 1022 30.18 851 25.13 11.7 53 76 7.7 45.8
07:05 1022 30.18 851 25.13 12 53.6 76 7.9 46.3
07:10 1022 30.18 851 25.13 12.3 54.2 74 7.8 46
07:15 1022 30.18 851 25.13 12.6 54.8 72 7.9 46.1
07:20 1022 30.18 851 25.13 12.9 55.3 72 8.1 46.6
07:25 1022 30.18 851 25.13 13 55.3 72 8.1 46.6
07:30 1022 30.18 851 25.13 13.2 55.7 69 7.7 45.9
07:35 1022 30.18 851 25.13 13.4 56.1 65 7.1 44.8
07:40 1022 30.18 851 25.13 13.9 56.9 65 7.5 45.5
07:45 1022 30.18 851 25.13 14.2 57.5 63 7.2 44.9
07:50 1022 30.18 852 25.16 14.2 57.6 62 7.1 44.7
07:55 1022 30.18 852 25.16 14 57.3 63 7.3 45.1
08:00 1022 30.18 852 25.16 14.2 57.5 64 7.5 45.4
08:05 1022 30.18 852 25.16 14.1 57.3 65 7.7 45.8
08:10 1022 30.18 852 25.16 13.5 56.3 67 7.6 45.6
08:15 1022 30.18 852 25.16 14 57.2 65 7.6 45.7
08:20 1022 30.18 852 25.16 14.3 57.8 63 7.6 45.6
08:25 1022 30.18 852 25.16 14.8 58.6 64 8.1 46.5
08:30 1023 30.21 852 25.16 14.4 57.9 66 8.1 46.6
08:35 1023 30.21 852 25.16 14.5 58 65 8.1 46.6
08:40 1023 30.21 852 25.16 14.9 58.8 63 8 46.4
08:45 1023 30.21 852 25.16 15 59 64 8.2 46.7
08:50 1023 30.21 852 25.16 14.6 58.3 65 8 46.5
08:55 1022 30.18 852 25.16 14.6 58.3 64 7.9 46.2
09:00 1022 30.18 852 25.16 15 59.1 63 8.2 46.7
09:05 1022 30.18 852 25.16 14.7 58.4 65 8.2 46.7
09:10 1022 30.18 852 25.16 14.5 58 64 7.9 46.2
09:15 1022 30.18 852 25.16 15 59 63 8 46.4
09:20 1022 30.18 852 25.16 15.2 59.3 63 8.3 47
09:25 1022 30.18 852 25.16 15.7 60.3 61 8.2 46.7
09:30 1022 30.18 852 25.16 16.3 61.3 59 8.4 47.1
09:35 1022 30.18 851 25.13 15.8 60.4 62 8.7 47.6
09:40 1022 30.18 851 25.13 16.1 61 59 8.2 46.8
09:45 1022 30.18 851 25.13 16.4 61.4 60 8.7 47.6
09:50 1022 30.18 851 25.13 16.3 61.3 61 8.9 48
09:55 1022 30.18 851 25.13 16.4 61.5 60 8.8 47.8
10:00 1022 30.18 851 25.13 16.7 62 60 9 48.2
10:05 1022 30.18 851 25.13 16.4 61.5 61 9 48.3
10:10 1022 30.18 851 25.13 17.4 63.3 57 8.7 47.7
10:15 1022 30.18 851 25.13 18.3 65 53 8.7 47.6
10:20 1022 30.18 851 25.13 17.4 63.2 61 9.8 49.7
10:25 1022 30.18 851 25.13 16.8 62.2 59 8.7 47.7
10:30 1022 30.18 851 25.13 17.4 63.3 57 8.8 47.8
10:35 1022 30.18 851 25.13 18.2 64.8 54 8.7 47.7
10:40 1022 30.18 851 25.13 18.3 64.9 59 10.1 50.2
10:45 1022 30.18 851 25.13 17.7 63.9 56 8.8 47.9
10:50 1022 30.18 851 25.13 18 64.4 57 9.5 49.2
10:55 1022 30.18 851 25.13 18.5 65.3 54 9.1 48.4
11:00 1022 30.18 851 25.13 18.7 65.7 54 9.2 48.6
11:05 1022 30.18 851 25.13 19.6 67.3 51 9.5 49.1
11:10 1022 30.18 851 25.13 19.7 67.4 54 10.4 50.7
11:15 1021 30.15 851 25.13 18.9 65.9 53 9.3 48.7
11:20 1021 30.15 851 25.13 19.4 66.8 52 9.4 48.9
11:25 1021 30.15 851 25.13 19.3 66.7 54 9.9 49.8
11:30 1021 30.15 851 25.13 18.7 65.7 54 9.3 48.7
11:35 1021 30.15 851 25.13 19.3 66.7 51 9.1 48.4
11:40 1021 30.15 851 25.13 20 68.1 50 9.4 48.8
11:45 1021 30.15 850 25.1 20.1 68.2 49 9.2 48.6
11:50 1021 30.15 850 25.1 20.7 69.2 49 9.8 49.7
11:55 1021 30.15 850 25.1 21.1 69.9 46 9.3 48.8
12:00 1021 30.15 850 25.1 21.2 70.1 48 9.9 49.9
12:05 1021 30.15 850 25.1 20.8 69.4 49 10 50
12:10 1021 30.15 850 25.1 20 67.9 50 9.5 49.1
12:15 1021 30.15 850 25.1 20.8 69.5 49 9.8 49.7
12:20 1021 30.15 850 25.1 20.1 68.2 52 10.1 50.2
12:25 1021 30.15 850 25.1 19.7 67.5 52 9.6 49.3
12:30 1021 30.15 850 25.1 19.9 67.8 51 9.6 49.3
12:35 1021 30.15 850 25.1 20.2 68.3 49 9.3 48.8
12:40 1021 30.15 850 25.1 21 69.8 48 9.7 49.4
12:45 1021 30.15 850 25.1 21.4 70.6 45 9.2 48.6
12:50 1021 30.15 850 25.1 21.8 71.2 46 9.7 49.4
12:55 1021 30.15 850 25.1 21.7 71.1 45 9.6 49.2
13:00 1021 30.15 850 25.1 21.9 71.5 43 8.9 48
13:05 1020 30.12 850 25.1 22.4 72.3 42 9 48.2
13:10 1020 30.12 850 25.1 23.4 74 38 8.6 47.4
13:15 1020 30.12 850 25.1 23.7 74.7 40 9.4 48.9
13:20 1020 30.12 849 25.07 23 73.4 38 8.2 46.8
13:25 1020 30.12 849 25.07 23.1 73.5 40 8.8 47.8
13:30 1020 30.12 849 25.07 22 71.7 40 8.2 46.7
13:35 1020 30.12 849 25.07 22.3 72.1 38 7.5 45.5
13:40 1020 30.12 849 25.07 23.7 74.7 36 7.8 46.1
13:45 1020 30.12 849 25.07 23.6 74.4 35 7.6 45.6
13:50 1020 30.12 849 25.07 23.6 74.4 38 8.5 47.4
13:55 1020 30.12 849 25.07 24 75.1 35 7.6 45.7
14:00 1020 30.12 849 25.07 23 73.4 36 7.5 45.5
14:05 1020 30.12 849 25.07 23.7 74.6 33 6.8 44.2
14:10 1020 30.12 849 25.07 23.9 75.1 32 6.4 43.6
14:15 1020 30.12 849 25.07 24.5 76.2 31 6.5 43.7
14:20 1020 30.12 849 25.07 24.3 75.8 32 6.6 43.9
14:25 1020 30.12 849 25.07 23.5 74.4 31 5.8 42.5
14:30 1020 30.12 849 25.07 24.9 76.8 30 6.2 43.1
14:35 1020 30.12 849 25.07 25.6 78 29 6.3 43.3
14:40 1019 30.09 849 25.07 25.7 78.3 29 6.5 43.7
14:45 1019 30.09 849 25.07 25.7 78.2 30 6.9 44.4
14:50 1019 30.09 849 25.07 25.2 77.4 31 7.2 44.9
14:55 1019 30.09 849 25.07 25 77 30 6.7 44
15:00 1019 30.09 849 25.07 24 75.1 33 7 44.5
15:05 1019 30.09 848 25.04 23.9 74.9 30 5.4 41.7
15:10 1019 30.09 848 25.04 25.4 77.8 29 6.5 43.7
15:15 1019 30.09 848 25.04 24.6 76.2 32 7.2 45
15:20 1019 30.09 848 25.04 24.3 75.7 32 6.7 44.1
15:25 1019 30.09 848 25.04 24.6 76.3 27 4.7 40.5
15:30 1019 30.09 848 25.04 25.2 77.4 26 4.8 40.6
15:35 1019 30.09 848 25.04 24.9 76.8 27 5 41
15:40 1019 30.09 848 25.04 25.1 77.3 28 5.4 41.7
15:45 1019 30.09 848 25.04 25.4 77.7 31 7.5 45.4
15:50 1019 30.09 848 25.04 25 77 31 7.2 44.9
15:55 1019 30.09 848 25.04 26.1 79 31 8 46.5
16:00 1019 30.09 848 25.04 26.3 79.3 32 8.4 47.1
16:05 1019 30.09 848 25.04 25.4 77.7 30 6.7 44
16:10 1019 30.09 848 25.04 25.4 77.7 32 7.8 46
16:15 1019 30.09 848 25.04 25.5 77.9 34 8.7 47.7
16:20 1018 30.06 848 25.04 25.1 77.3 34 8.4 47
16:25 1018 30.06 848 25.04 25.3 77.5 35 8.9 48
16:30 1018 30.06 848 25.04 24.8 76.6 34 8 46.3
16:35 1018 30.06 848 25.04 25 77 33 7.8 46
16:40 1018 30.06 848 25.04 24.7 76.5 35 8.4 47
16:45 1018 30.06 848 25.04 24.4 76 34 7.6 45.7
16:50 1018 30.06 847 25.01 24.8 76.6 35 8.6 47.4
16:55 1018 30.06 847 25.01 24.6 76.2 34 7.8 46.1
17:00 1018 30.06 847 25.01 24.9 76.8 35 8.7 47.7
17:05 1018 30.06 847 25.01 24.7 76.5 33 7.8 46.1
17:10 1018 30.06 847 25.01 24.8 76.7 33 7.9 46.2
17:15 1018 30.06 847 25.01 24.4 76 34 7.7 45.8
17:20 1018 30.06 847 25.01 24.3 75.8 34 7.6 45.7
17:25 1018 30.06 847 25.01 24.2 75.5 34 7.6 45.7
17:30 1018 30.06 847 25.01 24.3 75.8 34 7.9 46.2
17:35 1018 30.06 847 25.01 24.1 75.3 34 7.5 45.5
17:40 1018 30.06 847 25.01 24.2 75.5 35 7.8 46.1
17:45 1018 30.06 847 25.01 24 75.2 34 7.6 45.6
17:50 1018 30.06 847 25.01 24 75.1 34 7.4 45.3
17:55 1018 30.06 847 25.01 24 75.2 34 7.6 45.7
18:00 1018 30.06 847 25.01 24 75.2 35 7.8 46
18:05 1018 30.06 847 25.01 23.8 74.8 35 7.8 46
18:10 1018 30.06 847 25.01 23.8 74.8 34 7.3 45.2
18:15 1018 30.06 847 25.01 23.6 74.6 35 7.4 45.4
18:20 1018 30.06 847 25.01 23.5 74.3 35 7.5 45.5
18:25 1018 30.06 847 25.01 23.5 74.3 34 7 44.6
18:30 1017 30.03 847 25.01 23.4 74.1 34 7 44.6
18:35 1017 30.03 847 25.01 23.4 74.1 34 6.9 44.5
18:40 1017 30.03 847 25.01 23.5 74.3 34 7 44.5
18:45 1017 30.03 847 25.01 23.4 74.1 34 7 44.7
18:50 1017 30.03 847 25.01 23.3 74 34 7 44.5
18:55 1017 30.03 846 24.98 23.3 73.9 34 6.6 44
19:00 1017 30.03 846 24.98 23.2 73.7 34 6.8 44.3
19:05 1017 30.03 847 25.01 23.1 73.5 35 6.9 44.5
19:10 1017 30.03 847 25.01 23 73.4 34 6.5 43.7
19:15 1017 30.03 846 24.98 22.9 73.2 35 7 44.5
19:20 1017 30.03 846 24.98 22.9 73.2 35 6.8 44.2
19:25 1017 30.03 846 24.98 22.7 72.8 35 6.7 44
19:30 1017 30.03 847 25.01 22.5 72.6 35 6.5 43.7
19:35 1017 30.03 847 25.01 22.5 72.4 35 6.5 43.8
19:40 1017 30.03 847 25.01 22.4 72.3 36 6.6 43.9
19:45 1017 30.03 847 25.01 22.3 72.1 36 6.6 43.8
19:50 1017 30.03 847 25.01 22.2 71.9 36 6.7 44.1
19:55 1017 30.03 847 25.01 22.1 71.8 36 6.7 44.1
20:00 1017 30.03 847 25.01 22 71.7 36 6.5 43.8
20:05 1017 30.03 847 25.01 22 71.5 37 6.7 44
20:10 1017 30.03 847 25.01 21.9 71.4 37 6.8 44.2
20:15 1017 30.03 847 25.01 21.8 71.2 38 7 44.6
20:20 1017 30.03 847 25.01 21.7 71.1 38 6.9 44.4
20:25 1017 30.03 847 25.01 21.6 70.9 39 7.1 44.7
20:30 1017 30.03 847 25.01 21.5 70.6 39 7.1 44.9
20:35 1017 30.03 847 25.01 21.4 70.4 39 7.1 44.7
20:40 1018 30.06 847 25.01 21.2 70.2 40 7.2 45
20:45 1017 30.03 847 25.01 21 69.9 41 7.3 45.2
20:50 1018 30.06 847 25.01 20.9 69.6 41 7.3 45.1
20:55 1018 30.06 847 25.01 20.8 69.4 42 7.4 45.4
21:00 1018 30.06 847 25.01 20.6 69.1 42 7.4 45.4
21:05 1018 30.06 847 25.01 20.5 68.9 42 7.3 45.1
21:10 1018 30.06 847 25.01 20.4 68.7 43 7.6 45.6
21:15 1018 30.06 847 25.01 20.2 68.4 43 7.6 45.6
21:20 1018 30.06 847 25.01 20.2 68.3 44 7.6 45.7
21:25 1018 30.06 847 25.01 20 68 44 7.7 45.8
21:30 1018 30.06 847 25.01 19.9 67.8 45 7.8 46.1
21:35 1018 30.06 847 25.01 19.8 67.6 45 7.8 46
21:40 1018 30.06 847 25.01 19.7 67.4 46 8 46.3
21:45 1018 30.06 847 25.01 19.5 67 47 8 46.5
21:50 1018 30.06 847 25.01 19.4 66.9 48 8.1 46.6
21:55 1018 30.06 847 25.01 19.3 66.8 48 8.2 46.8
22:00 1018 30.06 847 25.01 19.3 66.8 49 8.4 47
22:05 1018 30.06 847 25.01 19.3 66.7 49 8.4 47
22:10 1018 30.06 847 25.01 19.2 66.6 49 8.4 47.1
22:15 1018 30.06 847 25.01 19.2 66.5 49 8.4 47.1
22:20 1018 30.06 847 25.01 19.1 66.4 50 8.5 47.2
22:25 1018 30.06 847 25.01 19 66.1 50 8.5 47.3
22:30 1018 30.06 847 25.01 18.9 66 50 8.5 47.3
22:35 1018 30.06 847 25.01 18.8 65.9 51 8.5 47.4
22:40 1018 30.06 847 25.01 18.7 65.7 51 8.6 47.5
22:45 1018 30.06 847 25.01 18.6 65.5 52 8.6 47.5
22:50 1018 30.06 847 25.01 18.5 65.4 52 8.7 47.6
22:55 1018 30.06 847 25.01 18.5 65.2 53 8.8 47.8
23:00 1018 30.06 847 25.01 18.4 65.1 53 8.8 47.8
23:05 1018 30.06 847 25.01 18.3 65 53 8.7 47.7
23:10 1018 30.06 847 25.01 18.3 64.9 53 8.7 47.7
23:15 1018 30.06 847 25.01 18.3 64.9 53 8.7 47.7
23:20 1018 30.06 847 25.01 18.2 64.7 54 8.8 47.8
23:25 1018 30.06 847 25.01 18.2 64.7 54 8.9 48
23:30 1018 30.06 847 25.01 18 64.5 54 8.8 47.9
23:35 1018 30.06 847 25.01 18 64.3 55 8.8 47.9
23:40 1018 30.06 847 25.01 17.9 64.2 56 9 48.1
23:45 1018 30.06 847 25.01 17.7 63.9 56 9 48.1
23:50 1018 30.06 847 25.01 17.6 63.8 56 8.8 47.9
23:55 1018 30.06 847 25.01 17.6 63.7 56 9 48.1
24:00 1018 30.06 847 25.01 17.4 63.4 57 8.8 47.9